セント・ジョンズ国際空港の過去48時間の天気

セント・ジョンズ国際空港 (St. John's)

現在時刻: 1/21 21:19 NST (1/22 00:49 UTC) 以下の時間は現地時間です。

過去48時間のMETAR気象情報
時間 風向 風速(m/s) 視程 気温(℃) 湿度(%) 気圧(hPa) 天気現象
21 20:30 北西 3 10km以上 -9 73 1026.7
21 19:30 北西 3 10km以上 -8 67 1025.1
21 18:30 北西 3 10km以上 -7 68 1023.3
21 17:30 北西 3 10km以上 -7 68 1021.8
21 16:30 北西 5 10km以上 -7 79 1020.8
21 15:56 5 10km以上 -6 79 1020
CYYT 220000Z 32005KT 15SM BKN035 M09/M13 A3028 RMK SC7 WND EST VIA CYHZ SLP267
CYYT 212300Z 32005KT 15SM BKN032 OVC040 M08/M13 A3023 RMK SC5SC3 WND EST VIA CYHZ SLP251
CYYT 212200Z 32005KT 15SM BKN040 M07/M12 A3018 RMK SC6 WND EST VIA CYHZ SLP233
CYYT 212100Z 32005KT 15SM BKN032 M07/M12 A3014 RMK SC5 WND ESTD VIA CYHZ SLP218
CYYT 212000Z 32010KT 15SM SCT050 BKN200 M07/M10 A3011 RMK SC3CI2 WND EST VIA CYHZ SLP208
CYYT 211926Z 36010KT 15SM FEW012 OVC050 M06/M09 A3009 RMK SC2SC6 WND ESTD VIA CYHZ SLP200